KIXD

New Century Aircenter Airport

Olathe, Kansas, USA
METAR KIXD 202004Z 27018G27KT 10SM BKN024 BKN030 OVC037 22/18 A2981 RMK AO2 PK WND 27027/1958 T02220183
Observed Flight Rules
Aug-20 @ 20:04 UTC (27 minutes ago) Marginal Visual Flight Rules
Wind Visibility Clouds
270° at 18 knots
 Gusting to 27 knots
10 miles
  • Broken at 2,400' AGL
  • Broken at 3,000' AGL
  • Overcast at 3,700' AGL
Temperatures Readings
Current 22°C / 72°F
Dewpoint 18°C / 64°F
Humidity 78%
Altimeter 29.81" Hg
Pressure 1009 hPa
Elevation 342
METAR KIXD 202004Z 27018G27KT 10SM BKN024 BKN030 OVC037 22/18 A2981 RMK AO2 PK WND 27027/1958 T02220183
Observed Flight Rules
Aug-20 @ 20:04 UTC
(27 minutes ago)
MVFR
Wind Visibility
270° at 18 knots
 Gusting to 27 knots
10 miles
Clouds
  • Broken at 2,400' AGL
  • Broken at 3,000' AGL
  • Overcast at 3,700' AGL
Temperature Dewpoint
22°C / 72°F 18°C / 64°F
Humidity Altimeter Pressure
78% 29.81" Hg 1009 hPa